Time;durP1;ratioP1;P1;durP2;ratioP2;P2;SDS_P1;SDS_P2;PMS_P1;PMS_P2;Temp;Humidity;BMP_temperature;BMP_pressure;BME280_temperature;BME280_humidity;BME280_pressure;Samples;Min_cycle;Max_cycle;Signal;HPM_P1;HPM_P2
2021/12/06 00:01:17;;;;;;;3.23;2.93;;;;;;;2.54;100.00;99624.91;5002947;28;20188;-54
2021/12/06 00:03:57;;;;;;;4.13;2.90;;;;;;;2.56;100.00;99630.91;5000305;28;20275;-54
2021/12/06 00:06:26;;;;;;;2.93;2.73;;;;;;;2.56;100.00;99621.56;5002544;28;20215;-54
2021/12/06 00:08:51;;;;;;;3.20;2.90;;;;;;;2.57;100.00;99627.53;5010861;28;20630;-54
2021/12/06 00:11:17;;;;;;;3.20;2.90;;;;;;;2.56;100.00;99625.81;5011597;28;20219;-53
2021/12/06 00:13:45;;;;;;;3.10;2.67;;;;;;;2.54;100.00;99623.25;5016045;28;20185;-54
2021/12/06 00:16:16;;;;;;;3.10;2.90;;;;;;;2.50;100.00;99624.03;5001585;28;20306;-54
2021/12/06 00:18:42;;;;;;;3.43;3.10;;;;;;;2.43;100.00;99628.22;5000340;28;20200;-54
2021/12/06 00:21:09;;;;;;;3.67;3.37;;;;;;;2.37;100.00;99623.00;4998621;28;20226;-53
2021/12/06 00:23:34;;;;;;;3.73;3.43;;;;;;;2.28;100.00;99623.72;5000437;28;20192;-54
2021/12/06 00:26:01;;;;;;;4.43;3.70;;;;;;;2.23;100.00;99624.50;5006486;28;20559;-53
2021/12/06 00:28:27;;;;;;;4.23;3.80;;;;;;;2.16;100.00;99620.16;5006646;28;20790;-54
2021/12/06 00:30:53;;;;;;;4.00;3.70;;;;;;;2.07;100.00;99626.84;5009134;28;20225;-56
2021/12/06 00:33:19;;;;;;;3.53;3.23;;;;;;;1.97;100.00;99630.09;5001455;28;20666;-53
2021/12/06 00:35:44;;;;;;;4.00;3.70;;;;;;;1.87;100.00;99629.09;4988594;28;20196;-55
2021/12/06 00:38:10;;;;;;;3.73;3.43;;;;;;;1.80;100.00;99634.94;5012218;28;20230;-55
2021/12/06 00:40:42;;;;;;;3.87;3.57;;;;;;;1.74;100.00;99638.22;5002301;28;20197;-55
2021/12/06 00:43:07;;;;;;;4.03;3.73;;;;;;;1.69;100.00;99634.75;5007899;28;20606;-52
2021/12/06 00:45:33;;;;;;;4.63;3.30;;;;;;;1.66;100.00;99642.34;5011368;28;20198;-55
2021/12/06 00:47:59;;;;;;;3.63;3.07;;;;;;;1.60;100.00;99648.22;5007962;28;20211;-54
2021/12/06 00:50:28;;;;;;;4.00;3.13;;;;;;;1.58;100.00;99656.69;5001893;28;20216;-55
2021/12/06 00:52:53;;;;;;;3.67;3.27;;;;;;;1.58;100.00;99654.97;4996088;28;20194;-54
2021/12/06 00:55:21;;;;;;;3.10;2.87;;;;;;;1.58;100.00;99652.44;5009711;28;20758;-54
2021/12/06 00:57:49;;;;;;;3.33;3.03;;;;;;;1.57;100.00;99653.25;4998033;28;20243;-54
2021/12/06 01:00:22;;;;;;;3.50;3.20;;;;;;;1.54;100.00;99649.81;5004378;28;20604;-54
2021/12/06 01:02:48;;;;;;;3.87;3.47;;;;;;;1.48;100.00;99653.94;5009149;28;20196;-53
2021/12/06 01:05:14;;;;;;;4.17;3.87;;;;;;;1.45;100.00;99658.16;4999975;28;20269;-54
2021/12/06 01:07:40;;;;;;;4.33;3.93;;;;;;;1.41;100.00;99662.34;5006983;28;20268;-53
2021/12/06 01:10:08;;;;;;;5.33;4.83;;;;;;;1.39;100.00;99664.00;5007114;28;20190;-53
2021/12/06 01:12:34;;;;;;;4.43;4.03;;;;;;;1.37;100.00;99668.22;5007052;28;20278;-53
2021/12/06 01:15:00;;;;;;;5.00;4.60;;;;;;;1.35;100.00;99668.19;5001982;28;20191;-54
2021/12/06 01:17:25;;;;;;;4.83;4.43;;;;;;;1.34;100.00;99669.03;5010199;28;20234;-54
2021/12/06 01:19:51;;;;;;;5.57;5.07;;;;;;;1.33;100.00;99671.53;5008291;28;20230;-54
2021/12/06 01:24:52;;;;;;;5.37;4.97;;;;;;;1.34;100.00;99683.44;5004329;28;20654;-54
2021/12/06 01:32:26;;;;;;;6.00;5.50;;;;;;;1.49;100.00;99708.38;5000723;28;20185;-54
2021/12/06 01:40:18;;;;;;;5.70;5.20;;;;;;;1.59;100.00;99724.72;5006981;28;20215;-54
2021/12/06 01:42:43;;;;;;;6.17;5.60;;;;;;;1.62;100.00;99740.03;5006912;28;20212;-54
2021/12/06 01:45:08;;;;;;;6.00;5.40;;;;;;;1.64;100.00;99730.75;5000423;28;22054;-54
2021/12/06 01:47:36;;;;;;;5.30;4.90;;;;;;;1.65;100.00;99735.88;5010050;28;20668;-53
2021/12/06 01:50:08;;;;;;;5.70;5.20;;;;;;;1.66;100.00;99741.84;5006643;28;20604;-54
2021/12/06 01:52:38;;;;;;;5.90;5.30;;;;;;;1.62;100.00;99742.59;5004120;28;20184;-53
2021/12/06 01:55:06;;;;;;;5.47;4.97;;;;;;;1.61;100.00;99743.44;5003493;28;20318;-53
2021/12/06 01:57:32;;;;;;;5.87;5.37;;;;;;;1.56;100.00;99738.25;5007477;28;20235;-54
2021/12/06 01:59:58;;;;;;;5.60;5.10;;;;;;;1.51;100.00;99750.06;5007164;28;20268;-54
2021/12/06 02:02:26;;;;;;;6.00;5.47;;;;;;;1.46;100.00;99742.31;5004424;28;20295;-53
2021/12/06 02:04:53;;;;;;;6.10;5.60;;;;;;;1.44;100.00;99754.16;5010260;28;20184;-54
2021/12/06 02:07:22;;;;;;;5.93;5.17;;;;;;;1.45;100.00;99753.34;5007842;28;20222;-54
2021/12/06 02:09:49;;;;;;;5.60;5.20;;;;;;;1.46;100.00;99752.50;5001339;28;20688;-53
2021/12/06 02:12:16;;;;;;;6.47;5.87;;;;;;;1.50;100.00;99756.00;5011713;28;20212;-54
2021/12/06 02:15:00;;;;;;;6.43;5.83;;;;;;;1.54;100.00;99754.38;5007459;28;20196;-53
2021/12/06 02:17:30;;;;;;;6.50;5.87;;;;;;;1.59;100.00;99745.13;5009196;28;20208;-53
2021/12/06 02:20:05;;;;;;;6.47;5.87;;;;;;;1.63;100.00;99745.19;5004625;28;20240;-53
2021/12/06 02:22:33;;;;;;;6.40;5.67;;;;;;;1.67;100.00;99751.22;5004801;28;20598;-54
2021/12/06 02:25:03;;;;;;;6.37;5.77;;;;;;;1.69;100.00;99747.00;5014135;28;20237;-54
2021/12/06 02:27:30;;;;;;;6.17;5.67;;;;;;;1.72;100.00;99758.94;5008484;28;20257;-54
2021/12/06 02:29:58;;;;;;;6.37;5.87;;;;;;;1.76;100.00;99750.53;5007911;28;20190;-54
2021/12/06 02:32:25;;;;;;;5.80;5.30;;;;;;;1.80;100.00;99753.16;5005053;28;20727;-53
2021/12/06 02:34:54;;;;;;;5.63;5.13;;;;;;;1.85;100.00;99757.47;5005410;28;20269;-54
2021/12/06 02:37:27;;;;;;;6.33;5.80;;;;;;;1.88;100.00;99760.94;5007745;28;20407;-54
2021/12/06 02:39:53;;;;;;;5.83;5.33;;;;;;;1.88;100.00;99760.94;5010285;28;20244;-54
2021/12/06 02:42:20;;;;;;;6.03;5.53;;;;;;;1.90;100.00;99766.06;5010637;28;20280;-54
2021/12/06 02:44:47;;;;;;;5.67;5.17;;;;;;;1.90;100.00;99772.03;5018512;28;20705;-53
2021/12/06 02:47:15;;;;;;;5.90;5.40;;;;;;;1.90;100.00;99766.06;5009155;28;20735;-55
2021/12/06 02:49:40;;;;;;;5.80;5.30;;;;;;;1.89;100.00;99769.47;4998981;28;20637;-54
2021/12/06 02:52:06;;;;;;;5.77;5.27;;;;;;;1.89;100.00;99767.75;4999169;28;20309;-54
2021/12/06 02:54:33;;;;;;;5.60;5.10;;;;;;;1.91;100.00;99781.41;5010294;28;20196;-54
2021/12/06 02:59:35;;;;;;;5.53;5.00;;;;;;;2.00;100.00;99784.94;5013048;28;20590;-54
2021/12/06 03:02:10;;;;;;;6.33;5.73;;;;;;;2.03;100.00;99792.66;5000744;28;20196;-54
2021/12/06 03:04:37;;;;;;;5.20;4.80;;;;;;;2.05;100.00;99793.56;5001322;28;20199;-54
2021/12/06 03:07:03;;;;;;;6.07;5.47;;;;;;;2.07;100.00;99802.09;5004410;28;20692;-54
2021/12/06 03:09:34;;;;;;;6.10;5.60;;;;;;;2.07;100.00;99802.97;5009588;28;20482;-54
2021/12/06 03:12:04;;;;;;;5.70;5.20;;;;;;;2.05;100.00;99801.22;5011600;28;20221;-54
2021/12/06 03:14:37;;;;;;;5.30;4.80;;;;;;;2.05;100.00;99803.78;5012696;28;20321;-53
2021/12/06 03:17:07;;;;;;;5.87;5.37;;;;;;;2.06;100.00;99806.34;5012397;28;20498;-54
2021/12/06 03:19:34;;;;;;;6.37;5.80;;;;;;;2.07;100.00;99810.63;5002676;28;21611;-54
2021/12/06 03:21:59;;;;;;;6.00;5.50;;;;;;;2.06;100.00;99813.16;5003404;28;20192;-54
2021/12/06 03:24:24;;;;;;;6.10;5.50;;;;;;;2.06;100.00;99814.00;5013910;28;20688;-54
2021/12/06 03:26:50;;;;;;;6.07;5.57;;;;;;;2.11;100.00;99807.28;5011030;28;20548;-54
2021/12/06 03:29:17;;;;;;;5.80;5.30;;;;;;;2.17;100.00;99816.75;5008098;28;20299;-54
2021/12/06 03:31:46;;;;;;;5.80;5.30;;;;;;;2.22;100.00;99824.47;5001347;28;20227;-53
2021/12/06 03:34:13;;;;;;;6.47;5.87;;;;;;;2.27;100.00;99836.50;5000100;28;20215;-54
2021/12/06 03:36:39;;;;;;;6.57;5.97;;;;;;;2.32;100.00;99828.94;5002895;28;20716;-54
2021/12/06 03:39:08;;;;;;;7.40;6.47;;;;;;;2.38;100.00;99833.28;5003611;28;20481;-54
2021/12/06 03:41:34;;;;;;;7.20;6.50;;;;;;;2.40;100.00;99832.47;5008243;28;20189;-54
2021/12/06 03:44:00;;;;;;;7.47;6.63;;;;;;;2.45;100.00;99837.66;5010941;28;20196;-54
2021/12/06 03:46:28;;;;;;;7.17;6.43;;;;;;;2.48;100.00;99831.75;5005813;28;20331;-54
2021/12/06 03:48:54;;;;;;;8.20;6.87;;;;;;;2.51;100.00;99834.31;5008155;28;20193;-54
2021/12/06 03:51:19;;;;;;;8.53;6.90;;;;;;;2.53;100.00;99836.09;5002392;28;20734;-54
2021/12/06 03:53:45;;;;;;;9.57;7.60;;;;;;;2.55;100.00;99839.53;5009207;28;20315;-54
2021/12/06 03:56:12;;;;;;;10.07;7.93;;;;;;;2.56;100.00;99837.84;5010465;28;20288;-53
2021/12/06 03:58:38;;;;;;;14.70;10.13;;;;;;;2.59;100.00;99841.28;5012925;28;20647;-54
2021/12/06 04:01:04;;;;;;;15.10;9.80;;;;;;;2.59;100.00;99840.44;5004003;28;20195;-54
2021/12/06 04:03:33;;;;;;;16.17;10.50;;;;;;;2.59;100.00;99845.56;5006265;28;20248;-55
2021/12/06 04:05:59;;;;;;;13.17;9.27;;;;;;;2.61;100.00;99848.13;5000398;28;20339;-55
2021/12/06 04:08:25;;;;;;;15.47;9.80;;;;;;;2.62;100.00;99857.50;5007832;28;20670;-55
2021/12/06 04:10:51;;;;;;;12.77;9.33;;;;;;;2.62;100.00;99860.06;5007426;28;20211;-54
2021/12/06 04:13:16;;;;;;;11.90;9.57;;;;;;;2.63;100.00;99872.00;5004708;28;20223;-53
2021/12/06 04:15:44;;;;;;;11.20;9.03;;;;;;;2.65;100.00;99870.34;5001243;28;20196;-54
2021/12/06 04:18:10;;;;;;;12.43;9.53;;;;;;;2.63;100.00;99872.88;4998506;28;20368;-54
2021/12/06 04:20:37;;;;;;;13.73;9.33;;;;;;;2.62;100.00;99883.94;5005645;28;20643;-55
2021/12/06 04:23:06;;;;;;;12.43;9.00;;;;;;;2.59;100.00;99887.28;5004469;28;20200;-54
2021/12/06 04:25:33;;;;;;;10.30;8.23;;;;;;;2.57;100.00;99888.94;5013041;28;20302;-54
2021/12/06 04:28:03;;;;;;;10.40;8.27;;;;;;;2.58;100.00;99897.47;5008950;28;20687;-54
2021/12/06 04:30:29;;;;;;;10.57;8.50;;;;;;;2.59;100.00;99900.03;4998933;28;20490;-54
2021/12/06 04:32:55;;;;;;;10.77;8.90;;;;;;;2.61;100.00;99904.31;4994239;28;20184;-54
2021/12/06 04:35:22;;;;;;;12.60;8.60;;;;;;;2.61;100.00;99897.53;5005312;28;20195;-55
2021/12/06 04:37:48;;;;;;;10.77;8.50;;;;;;;2.62;100.00;99893.28;4997176;28;20294;-54
2021/12/06 04:40:14;;;;;;;9.70;8.23;;;;;;;2.62;100.00;99899.25;5006605;28;20609;-54
2021/12/06 04:42:41;;;;;;;10.57;8.33;;;;;;;2.63;100.00;99915.44;5002638;28;20197;-54
2021/12/06 04:45:07;;;;;;;11.10;9.20;;;;;;;2.63;100.00;99913.75;5007284;28;20234;-54
2021/12/06 04:47:32;;;;;;;11.87;9.07;;;;;;;2.64;100.00;99919.72;4999901;28;20225;-54
2021/12/06 04:49:58;;;;;;;13.67;9.93;;;;;;;2.64;100.00;99923.16;5001661;28;21164;-54
2021/12/06 04:52:24;;;;;;;13.30;9.53;;;;;;;2.62;100.00;99924.81;5001880;28;20298;-52
2021/12/06 04:54:55;;;;;;;10.83;9.40;;;;;;;2.61;100.00;99922.22;5001980;28;20184;-54
2021/12/06 04:57:34;;;;;;;11.40;9.23;;;;;;;2.57;100.00;99928.97;4992127;28;20216;-54
2021/12/06 05:00:13;;;;;;;11.53;9.70;;;;;;;2.58;100.00;99933.25;5002110;28;20633;-54
2021/12/06 05:02:39;;;;;;;11.23;9.57;;;;;;;2.55;100.00;99928.94;4998751;28;20596;-54
2021/12/06 05:05:15;;;;;;;13.10;9.67;;;;;;;2.54;100.00;99942.56;4999904;28;20185;-54
2021/12/06 05:07:45;;;;;;;11.67;9.43;;;;;;;2.53;100.00;99940.84;5001857;28;20214;-54
2021/12/06 05:10:12;;;;;;;13.60;10.23;;;;;;;2.53;100.00;99951.03;4993766;28;20558;-54
2021/12/06 05:12:39;;;;;;;12.70;9.37;;;;;;;2.52;100.00;99945.88;4997717;28;20186;-53
2021/12/06 05:15:06;;;;;;;16.00;10.43;;;;;;;2.50;100.00;99952.66;5001666;28;20215;-54
2021/12/06 05:17:32;;;;;;;13.67;9.77;;;;;;;2.50;100.00;99952.66;5006310;28;20211;-54
2021/12/06 05:19:57;;;;;;;14.70;9.97;;;;;;;2.50;100.00;99957.78;5009307;28;20243;-54
2021/12/06 05:22:24;;;;;;;11.87;9.13;;;;;;;2.49;100.00;99961.19;5011318;28;20475;-53
2021/12/06 05:24:50;;;;;;;13.93;10.37;;;;;;;2.48;100.00;99962.88;5009101;28;20184;-54
2021/12/06 05:27:19;;;;;;;13.93;9.63;;;;;;;2.47;100.00;99962.84;5008457;28;20226;-53
2021/12/06 05:29:50;;;;;;;16.03;10.67;;;;;;;2.47;100.00;99970.50;5009129;28;20207;-54
2021/12/06 05:32:16;;;;;;;14.07;9.77;;;;;;;2.46;100.00;99979.00;5009332;28;20216;-54
2021/12/06 05:34:43;;;;;;;14.53;8.83;;;;;;;2.47;100.00;99975.63;5009683;28;20711;-54
2021/12/06 05:37:13;;;;;;;14.20;9.87;;;;;;;2.49;100.00;99976.50;5009813;28;20209;-53
2021/12/06 05:39:39;;;;;;;15.73;10.33;;;;;;;2.49;100.00;99976.50;5014730;28;20195;-54
2021/12/06 05:42:08;;;;;;;14.27;9.63;;;;;;;2.50;100.00;99975.66;5005450;28;20192;-53
2021/12/06 05:44:35;;;;;;;13.63;9.83;;;;;;;2.48;100.00;99977.34;5007756;28;20179;-54
2021/12/06 05:47:00;;;;;;;13.67;10.07;;;;;;;2.46;100.00;99976.44;5011766;28;20200;-54
2021/12/06 05:49:27;;;;;;;14.93;10.67;;;;;;;2.42;100.00;99975.53;5027191;28;20191;-53
2021/12/06 05:51:53;;;;;;;14.00;9.97;;;;;;;2.38;100.00;99979.69;5017153;28;20258;-54
2021/12/06 05:54:18;;;;;;;12.63;9.37;;;;;;;2.37;100.00;99987.34;5010455;28;20176;-54
2021/12/06 05:56:44;;;;;;;13.20;9.10;;;;;;;2.37;100.00;99995.00;5025188;28;20299;-54
2021/12/06 05:59:11;;;;;;;13.83;9.37;;;;;;;2.36;100.00;99996.69;5005109;28;20193;-54
2021/12/06 06:01:36;;;;;;;13.13;9.63;;;;;;;2.38;100.00;100009.50;5014490;28;20181;-55
2021/12/06 06:04:03;;;;;;;14.80;9.33;;;;;;;2.38;100.00;100023.13;5040161;28;20187;-54
2021/12/06 06:06:34;;;;;;;12.43;9.40;;;;;;;2.38;100.00;100019.72;5050203;28;20298;-54
2021/12/06 06:09:00;;;;;;;13.60;10.20;;;;;;;2.36;100.00;100032.44;5009983;28;20181;-54
2021/12/06 06:11:26;;;;;;;13.80;9.57;;;;;;;2.35;100.00;100033.25;5011623;28;20219;-54
2021/12/06 06:13:52;;;;;;;13.50;9.97;;;;;;;2.34;100.00;100040.91;5014220;28;20200;-54
2021/12/06 06:16:20;;;;;;;13.60;10.10;;;;;;;2.34;100.00;100052.00;5025903;28;20202;-53
2021/12/06 06:18:48;;;;;;;14.80;10.33;;;;;;;2.35;100.00;100053.69;5004675;28;20597;-54
2021/12/06 06:21:13;;;;;;;14.13;9.73;;;;;;;2.36;100.00;100060.53;5002189;28;20582;-53
2021/12/06 06:23:39;;;;;;;13.77;9.90;;;;;;;2.39;100.00;100055.50;5010827;28;20372;-54
2021/12/06 06:26:04;;;;;;;13.07;9.63;;;;;;;2.40;100.00;100064.88;5034005;28;20238;-54
2021/12/06 06:28:30;;;;;;;12.10;9.60;;;;;;;2.42;100.00;100064.94;5014107;28;20200;-54
2021/12/06 06:30:56;;;;;;;11.33;9.23;;;;;;;2.41;100.00;100068.31;5013295;28;20281;-54
2021/12/06 06:33:21;;;;;;;11.63;9.40;;;;;;;2.42;100.00;100067.47;5007010;28;20187;-55
2021/12/06 06:35:47;;;;;;;10.63;8.77;;;;;;;2.42;100.00;100068.34;5004931;28;20262;-54
2021/12/06 06:38:13;;;;;;;10.70;9.40;;;;;;;2.41;100.00;100074.28;5019958;28;20210;-55
2021/12/06 06:40:39;;;;;;;10.40;8.60;;;;;;;2.41;100.00;100081.09;5054852;28;20203;-53
2021/12/06 06:43:05;;;;;;;10.33;8.70;;;;;;;2.42;100.00;100087.91;5018044;28;20219;-54
2021/12/06 06:45:31;;;;;;;9.70;8.70;;;;;;;2.41;100.00;100088.75;4994313;28;20685;-54
2021/12/06 06:47:57;;;;;;;9.57;8.30;;;;;;;2.41;100.00;100092.16;5013183;28;20281;-54
2021/12/06 06:50:23;;;;;;;10.30;9.20;;;;;;;2.42;100.00;100090.47;4991954;28;20216;-54
2021/12/06 06:52:49;;;;;;;10.53;8.90;;;;;;;2.43;100.00;100092.16;4995992;28;20644;-52
2021/12/06 06:55:15;;;;;;;12.27;9.93;;;;;;;2.44;100.00;100099.88;4995607;28;20784;-55
2021/12/06 06:57:41;;;;;;;12.23;9.70;;;;;;;2.44;100.00;100105.00;4996994;28;20261;-54
2021/12/06 07:00:16;;;;;;;13.33;10.40;;;;;;;2.47;100.00;100100.78;5000316;28;20292;-54
2021/12/06 07:02:43;;;;;;;14.50;12.07;;;;;;;2.47;100.00;100099.06;4995771;28;20246;-53
2021/12/06 07:05:09;;;;;;;13.77;10.47;;;;;;;2.49;100.00;100099.97;5009315;28;20192;-55
2021/12/06 07:07:34;;;;;;;13.07;10.43;;;;;;;2.48;100.00;100100.81;5012821;28;20214;-54
2021/12/06 07:10:00;;;;;;;11.67;9.50;;;;;;;2.50;100.00;100105.94;5007669;28;20192;-54
2021/12/06 07:12:26;;;;;;;11.07;9.10;;;;;;;2.50;100.00;100111.91;5012554;28;20272;-54
2021/12/06 07:14:51;;;;;;;10.37;8.03;;;;;;;2.49;100.00;100122.13;5013315;28;20212;-54
2021/12/06 07:17:17;;;;;;;9.53;7.90;;;;;;;2.49;100.00;100122.97;5012854;28;20206;-54
2021/12/06 07:19:43;;;;;;;8.87;7.97;;;;;;;2.50;100.00;100131.47;5007094;28;20188;-54
2021/12/06 07:22:09;;;;;;;10.00;8.83;;;;;;;2.51;100.00;100144.28;5019828;28;20290;-53
2021/12/06 07:24:35;;;;;;;10.10;8.63;;;;;;;2.52;100.00;100138.38;5023217;28;20183;-53
2021/12/06 07:27:00;;;;;;;10.00;8.93;;;;;;;2.53;100.00;100136.66;4997163;28;20638;-54
2021/12/06 07:29:26;;;;;;;10.50;9.17;;;;;;;2.55;100.00;100140.09;5021060;28;20792;-54
2021/12/06 07:31:52;;;;;;;8.83;7.90;;;;;;;2.58;100.00;100152.94;5017474;28;20204;-55
2021/12/06 07:34:18;;;;;;;8.90;8.00;;;;;;;2.59;100.00;100152.97;5010598;28;20180;-54
2021/12/06 07:36:44;;;;;;;9.03;7.70;;;;;;;2.63;100.00;100160.72;5017696;28;20211;-55
2021/12/06 07:39:10;;;;;;;15.23;10.47;;;;;;;2.66;100.00;100156.53;5015978;28;20181;-54
2021/12/06 07:41:36;;;;;;;14.13;10.43;;;;;;;2.68;100.00;100165.09;5003942;28;20191;-55
2021/12/06 07:44:03;;;;;;;15.23;10.20;;;;;;;2.69;100.00;100159.16;5008140;28;20536;-54
2021/12/06 07:46:29;;;;;;;12.77;10.03;;;;;;;2.73;100.00;100170.28;5014180;28;20204;-54
2021/12/06 07:48:54;;;;;;;10.70;9.60;;;;;;;2.78;100.00;100170.41;5011799;28;20201;-54
2021/12/06 07:51:24;;;;;;;12.70;9.43;;;;;;;2.83;100.00;100179.00;5000743;28;20207;-55
2021/12/06 07:53:51;;;;;;;11.73;9.97;;;;;;;2.86;100.00;100176.53;5017650;28;20203;-53
2021/12/06 07:56:17;;;;;;;10.50;9.40;;;;;;;2.88;100.00;100185.94;5010543;28;20204;-53
2021/12/06 07:58:42;;;;;;;10.30;9.20;;;;;;;2.93;100.00;100180.06;5014328;28;20570;-53
2021/12/06 08:01:09;;;;;;;10.83;9.73;;;;;;;2.97;100.00;100179.31;5015500;28;20176;-53
2021/12/06 08:03:36;;;;;;;12.57;10.27;;;;;;;3.00;100.00;100184.50;5020273;28;20252;-53
2021/12/06 08:06:02;;;;;;;11.07;9.33;;;;;;;3.03;100.00;100180.28;5020651;28;20188;-53
2021/12/06 08:08:29;;;;;;;11.63;9.27;;;;;;;3.07;100.00;100177.81;5022461;28;20221;-53
2021/12/06 08:11:06;;;;;;;9.97;8.93;;;;;;;3.11;100.00;100184.69;5007229;28;20272;-53
2021/12/06 08:13:33;;;;;;;10.07;8.60;;;;;;;3.16;100.00;100189.09;5030781;28;20539;-53
2021/12/06 08:16:05;;;;;;;9.60;8.63;;;;;;;3.18;100.00;100187.38;5022816;28;20268;-53
2021/12/06 08:18:30;;;;;;;10.67;9.50;;;;;;;3.22;100.00;100190.00;5022124;28;20615;-55
2021/12/06 08:20:56;;;;;;;12.07;10.03;;;;;;;3.26;100.00;100186.69;5017803;28;20191;-54
2021/12/06 08:23:23;;;;;;;16.00;11.27;;;;;;;3.33;100.00;100188.53;5030601;28;20202;-54
2021/12/06 08:25:50;;;;;;;11.67;10.40;;;;;;;3.39;100.00;100185.25;5002583;28;20277;-54
2021/12/06 08:28:20;;;;;;;10.77;9.67;;;;;;;3.45;100.00;100191.34;5018911;28;20219;-55
2021/12/06 08:30:47;;;;;;;11.70;9.70;;;;;;;3.50;100.00;100188.84;5025441;28;20702;-54
2021/12/06 08:33:13;;;;;;;10.93;9.83;;;;;;;3.55;100.00;100188.94;5016338;28;21112;-54
2021/12/06 08:35:41;;;;;;;13.33;10.97;;;;;;;3.60;100.00;100185.63;5008424;28;20196;-55
2021/12/06 08:38:10;;;;;;;12.93;10.63;;;;;;;3.67;100.00;100196.81;5027877;28;20308;-55
2021/12/06 08:40:37;;;;;;;12.63;11.33;;;;;;;3.74;100.00;100200.34;5013468;28;20179;-54
2021/12/06 08:43:03;;;;;;;13.13;11.13;;;;;;;3.81;100.00;100197.94;5012691;28;20550;-54
2021/12/06 08:45:30;;;;;;;12.10;10.70;;;;;;;3.89;100.00;100195.50;5010157;28;20296;-54
2021/12/06 08:47:56;;;;;;;10.53;9.27;;;;;;;3.98;100.00;100202.47;5053761;28;20711;-54
2021/12/06 08:50:22;;;;;;;10.83;9.63;;;;;;;4.05;100.00;100204.31;5005286;28;20200;-54
2021/12/06 08:52:49;;;;;;;10.77;9.67;;;;;;;4.14;100.00;100202.72;5019595;28;20189;-54
2021/12/06 08:55:16;;;;;;;10.80;9.67;;;;;;;4.21;100.00;100213.09;5023020;28;20605;-54
2021/12/06 08:57:42;;;;;;;10.93;9.83;;;;;;;4.28;100.00;100208.91;5017710;28;20280;-54
2021/12/06 09:00:13;;;;;;;12.07;10.57;;;;;;;4.34;100.00;100210.72;5013469;28;20184;-54
2021/12/06 09:02:39;;;;;;;10.67;9.27;;;;;;;4.41;100.00;100215.94;5024436;28;20196;-53
2021/12/06 09:05:06;;;;;;;10.30;9.23;;;;;;;4.48;100.00;100209.22;5005211;28;20236;-54
2021/12/06 09:07:32;;;;;;;11.70;10.50;;;;;;;4.54;100.00;100218.69;5022107;28;20212;-54
2021/12/06 09:09:57;;;;;;;10.50;9.50;;;;;;;4.51;100.00;100214.38;5021506;28;20196;-54
2021/12/06 09:12:26;;;;;;;11.17;9.97;;;;;;;4.50;100.00;100215.22;5015870;28;20345;-54
2021/12/06 09:14:53;;;;;;;12.07;10.87;;;;;;;4.47;100.00;100214.31;5015701;28;20190;-54
2021/12/06 09:17:19;;;;;;;9.77;8.83;;;;;;;4.47;100.00;100219.47;5021997;28;20695;-54
2021/12/06 09:19:45;;;;;;;10.50;9.40;;;;;;;4.51;100.00;100226.34;5039867;28;20604;-54
2021/12/06 09:22:11;;;;;;;11.43;10.03;;;;;;;4.53;100.00;100219.56;5014940;28;20991;-54
2021/12/06 09:24:37;;;;;;;11.17;9.67;;;;;;;4.54;100.00;100219.56;5014230;28;20207;-54
2021/12/06 09:27:03;;;;;;;10.70;8.93;;;;;;;4.54;100.00;100218.69;5015077;28;20219;-54
2021/12/06 09:29:32;;;;;;;10.27;9.27;;;;;;;4.53;100.00;100220.41;5023415;28;20188;-54
2021/12/06 09:31:59;;;;;;;10.00;9.07;;;;;;;4.59;100.00;100222.19;5017931;28;20226;-54
2021/12/06 09:34:28;;;;;;;10.03;9.03;;;;;;;4.66;100.00;100207.75;5006184;28;20644;-53
2021/12/06 09:36:54;;;;;;;9.00;8.20;;;;;;;4.72;100.00;100208.69;5005560;28;20684;-54
2021/12/06 09:39:19;;;;;;;8.93;8.03;;;;;;;4.78;100.00;100207.91;5015400;28;20286;-53
2021/12/06 09:41:45;;;;;;;9.60;8.70;;;;;;;4.85;100.00;100203.72;5000679;28;20204;-53
2021/12/06 09:44:12;;;;;;;9.87;8.93;;;;;;;4.85;100.00;100207.19;5003715;28;20628;-53
2021/12/06 09:46:39;;;;;;;9.60;8.20;;;;;;;4.82;100.00;100206.28;5110231;27;20574;-54
2021/12/06 09:49:10;;;;;;;10.03;8.63;;;;;;;4.78;100.00;100209.63;5024920;28;20277;-53
2021/12/06 09:51:38;;;;;;;9.03;8.20;;;;;;;4.75;100.00;100217.28;4998149;28;20717;-54
2021/12/06 09:54:03;;;;;;;9.50;8.60;;;;;;;4.72;100.00;100223.25;5036199;28;20185;-54
2021/12/06 09:56:37;;;;;;;9.17;8.27;;;;;;;4.78;100.00;100228.44;5055146;28;20692;-53
2021/12/06 09:59:06;;;;;;;8.17;7.37;;;;;;;4.86;100.00;100231.09;5020349;28;20200;-53
2021/12/06 10:01:36;;;;;;;9.00;8.20;;;;;;;4.98;100.00;100231.28;5008657;28;20562;-54
2021/12/06 10:04:07;;;;;;;8.17;7.47;;;;;;;5.12;100.00;100239.16;5017807;28;20662;-53
2021/12/06 10:06:33;;;;;;;7.83;7.03;;;;;;;5.28;100.00;100235.06;5017516;28;20220;-55
2021/12/06 10:09:01;;;;;;;8.43;7.70;;;;;;;5.43;100.00;100236.09;5008902;28;20585;-53
2021/12/06 10:11:27;;;;;;;8.40;7.60;;;;;;;5.51;100.00;100231.03;5019325;28;20212;-53
2021/12/06 10:13:55;;;;;;;8.30;7.50;;;;;;;5.56;100.00;100239.63;5042045;28;20219;-53
2021/12/06 10:16:22;;;;;;;9.50;8.53;;;;;;;5.61;100.00;100232.84;5015121;28;20748;-55
2021/12/06 10:18:48;;;;;;;8.67;7.53;;;;;;;5.67;100.00;100232.06;5011865;28;20189;-55
2021/12/06 10:21:14;;;;;;;8.33;7.53;;;;;;;5.72;100.00;100220.13;5028589;28;20190;-54
2021/12/06 10:23:41;;;;;;;8.87;8.03;;;;;;;5.76;100.00;100211.59;5039963;28;20191;-54
2021/12/06 10:26:12;;;;;;;8.77;8.07;;;;;;;5.75;100.00;100212.44;4999494;28;20198;-54
2021/12/06 10:28:41;;;;;;;9.03;8.23;;;;;;;5.73;100.00;100212.44;5009480;28;20600;-55
2021/12/06 10:31:08;;;;;;;8.77;7.93;;;;;;;5.67;100.00;100208.94;5012664;28;20299;-55
2021/12/06 10:33:40;;;;;;;9.60;8.70;;;;;;;5.59;100.00;100208.88;5014407;28;20193;-54
2021/12/06 10:36:15;;;;;;;8.83;8.03;;;;;;;5.44;100.00;100205.31;5016229;27;20772;-54
2021/12/06 10:38:53;;;;;;;8.73;8.03;;;;;;;5.29;100.00;100208.56;5015981;28;20188;-55
2021/12/06 10:41:21;;;;;;;8.50;7.70;;;;;;;5.17;100.00;100198.16;5013372;28;20194;-54
2021/12/06 10:43:54;;;;;;;8.77;8.07;;;;;;;5.08;100.00;100200.63;5012927;28;20192;-54
2021/12/06 10:46:21;;;;;;;9.80;8.70;;;;;;;4.97;100.00;100193.66;5010563;28;20355;-54
2021/12/06 10:48:47;;;;;;;8.60;7.80;;;;;;;4.92;100.00;100194.41;5014337;28;20201;-54
2021/12/06 10:51:16;;;;;;;9.43;8.53;;;;;;;4.91;100.00;100198.69;5012628;28;20213;-54
2021/12/06 10:53:47;;;;;;;9.10;8.20;;;;;;;4.89;100.00;100200.38;5014430;28;20720;-54
2021/12/06 10:56:25;;;;;;;9.07;8.17;;;;;;;4.88;100.00;100198.66;5008342;28;20640;-54
2021/12/06 10:58:54;;;;;;;8.67;7.87;;;;;;;4.89;100.00;100195.25;5008637;28;20186;-54
2021/12/06 11:01:26;;;;;;;9.03;8.13;;;;;;;4.90;100.00;100185.88;5009434;28;20181;-54
2021/12/06 11:03:53;;;;;;;8.87;7.60;;;;;;;4.82;100.00;100186.63;5047193;27;20188;-54
2021/12/06 11:06:24;;;;;;;8.70;7.83;;;;;;;4.79;100.00;100185.72;5006432;28;20232;-53
2021/12/06 11:08:52;;;;;;;8.80;8.00;;;;;;;4.74;100.00;100185.66;5006428;28;20186;-53
2021/12/06 11:11:43;;;;;;;8.63;7.80;;;;;;;4.77;100.00;100188.25;5025359;28;20640;-54
2021/12/06 11:14:11;;;;;;;7.87;7.17;;;;;;;4.83;100.00;100179.81;5009890;28;20203;-54
2021/12/06 11:16:40;;;;;;;7.70;7.00;;;;;;;4.83;100.00;100190.91;5027589;27;20215;-54
2021/12/06 11:19:14;;;;;;;8.13;7.07;;;;;;;4.81;100.00;100186.59;5023001;28;20935;-54
2021/12/06 11:21:42;;;;;;;8.23;7.43;;;;;;;4.81;100.00;100186.59;5017685;28;20276;-53
2021/12/06 11:24:13;;;;;;;9.03;7.90;;;;;;;4.82;100.00;100184.06;5008827;28;20193;-53
2021/12/06 11:26:59;;;;;;;9.00;7.83;;;;;;;4.83;100.00;100182.38;5008291;28;20227;-53
2021/12/06 11:29:26;;;;;;;7.77;7.00;;;;;;;4.79;100.00;100180.59;5010693;28;20216;-54
2021/12/06 11:31:54;;;;;;;7.63;6.93;;;;;;;4.78;100.00;100173.75;5014710;28;20210;-54
2021/12/06 11:34:20;;;;;;;7.40;6.70;;;;;;;4.81;100.00;100172.06;4991058;28;20739;-53
2021/12/06 11:36:45;;;;;;;6.93;6.30;;;;;;;4.87;100.00;100171.28;5005508;28;20199;-54
2021/12/06 11:39:16;;;;;;;6.97;6.17;;;;;;;4.88;100.00;100173.00;5005238;28;20191;-53
2021/12/06 11:41:45;;;;;;;7.30;6.40;;;;;;;4.83;100.00;100172.09;5022210;28;20262;-54